sensor_id;sensor_type;location;lat;lon;timestamp;P1;durP1;ratioP1;P2;durP2;ratioP2
17361;SDS011;8798;51.938;4.348;2023-04-27T00:02:09;4.13;;;2.63;;
17361;SDS011;8798;51.938;4.348;2023-04-27T00:04:38;5.20;;;3.00;;
17361;SDS011;8798;51.938;4.348;2023-04-27T00:07:07;7.50;;;2.30;;
17361;SDS011;8798;51.938;4.348;2023-04-27T00:09:34;5.73;;;3.17;;
17361;SDS011;8798;51.938;4.348;2023-04-27T00:12:02;4.17;;;2.50;;
17361;SDS011;8798;51.938;4.348;2023-04-27T00:14:31;9.57;;;3.23;;
17361;SDS011;8798;51.938;4.348;2023-04-27T00:17:00;4.23;;;2.67;;
17361;SDS011;8798;51.938;4.348;2023-04-27T00:19:28;4.77;;;2.60;;
17361;SDS011;8798;51.938;4.348;2023-04-27T00:21:56;5.10;;;2.87;;
17361;SDS011;8798;51.938;4.348;2023-04-27T00:24:25;5.03;;;2.83;;
17361;SDS011;8798;51.938;4.348;2023-04-27T00:26:53;4.80;;;2.70;;
17361;SDS011;8798;51.938;4.348;2023-04-27T00:29:21;4.40;;;2.80;;
17361;SDS011;8798;51.938;4.348;2023-04-27T00:31:48;6.53;;;3.00;;
17361;SDS011;8798;51.938;4.348;2023-04-27T00:34:17;5.90;;;3.13;;
17361;SDS011;8798;51.938;4.348;2023-04-27T00:36:46;6.10;;;3.13;;
17361;SDS011;8798;51.938;4.348;2023-04-27T00:39:13;6.60;;;3.10;;
17361;SDS011;8798;51.938;4.348;2023-04-27T00:41:41;6.00;;;3.03;;
17361;SDS011;8798;51.938;4.348;2023-04-27T00:44:09;4.90;;;3.13;;
17361;SDS011;8798;51.938;4.348;2023-04-27T00:46:37;5.93;;;3.27;;
17361;SDS011;8798;51.938;4.348;2023-04-27T00:49:05;5.17;;;2.90;;
17361;SDS011;8798;51.938;4.348;2023-04-27T00:51:34;5.90;;;3.20;;
17361;SDS011;8798;51.938;4.348;2023-04-27T00:54:02;6.97;;;3.40;;
17361;SDS011;8798;51.938;4.348;2023-04-27T00:56:31;10.37;;;3.23;;
17361;SDS011;8798;51.938;4.348;2023-04-27T00:58:59;8.43;;;3.00;;
17361;SDS011;8798;51.938;4.348;2023-04-27T01:01:27;7.00;;;3.03;;
17361;SDS011;8798;51.938;4.348;2023-04-27T01:03:56;8.87;;;3.27;;
17361;SDS011;8798;51.938;4.348;2023-04-27T01:06:24;6.80;;;3.03;;
17361;SDS011;8798;51.938;4.348;2023-04-27T01:08:54;7.47;;;2.90;;
17361;SDS011;8798;51.938;4.348;2023-04-27T01:11:22;6.17;;;3.33;;
17361;SDS011;8798;51.938;4.348;2023-04-27T01:13:50;6.17;;;3.40;;
17361;SDS011;8798;51.938;4.348;2023-04-27T01:16:18;7.07;;;3.10;;
17361;SDS011;8798;51.938;4.348;2023-04-27T01:18:46;5.50;;;2.83;;
17361;SDS011;8798;51.938;4.348;2023-04-27T01:21:14;5.93;;;3.30;;
17361;SDS011;8798;51.938;4.348;2023-04-27T01:23:43;7.20;;;2.97;;
17361;SDS011;8798;51.938;4.348;2023-04-27T01:26:11;5.20;;;3.20;;
17361;SDS011;8798;51.938;4.348;2023-04-27T01:28:41;4.70;;;2.87;;
17361;SDS011;8798;51.938;4.348;2023-04-27T01:31:09;4.50;;;3.00;;
17361;SDS011;8798;51.938;4.348;2023-04-27T01:33:37;6.07;;;3.17;;
17361;SDS011;8798;51.938;4.348;2023-04-27T01:36:06;6.27;;;2.63;;
17361;SDS011;8798;51.938;4.348;2023-04-27T01:38:35;6.40;;;3.10;;
17361;SDS011;8798;51.938;4.348;2023-04-27T01:41:04;4.83;;;2.87;;
17361;SDS011;8798;51.938;4.348;2023-04-27T01:43:34;4.70;;;2.30;;
17361;SDS011;8798;51.938;4.348;2023-04-27T01:46:06;5.03;;;2.90;;
17361;SDS011;8798;51.938;4.348;2023-04-27T01:48:34;6.23;;;2.40;;
17361;SDS011;8798;51.938;4.348;2023-04-27T01:51:02;3.77;;;2.60;;
17361;SDS011;8798;51.938;4.348;2023-04-27T01:53:30;5.07;;;2.97;;
17361;SDS011;8798;51.938;4.348;2023-04-27T01:55:58;5.37;;;2.83;;
17361;SDS011;8798;51.938;4.348;2023-04-27T01:58:27;5.50;;;2.63;;
17361;SDS011;8798;51.938;4.348;2023-04-27T02:00:55;4.77;;;3.00;;
17361;SDS011;8798;51.938;4.348;2023-04-27T02:03:23;6.20;;;2.77;;
17361;SDS011;8798;51.938;4.348;2023-04-27T02:05:51;5.70;;;2.77;;
17361;SDS011;8798;51.938;4.348;2023-04-27T02:08:19;3.97;;;2.57;;
17361;SDS011;8798;51.938;4.348;2023-04-27T02:10:47;4.53;;;2.80;;
17361;SDS011;8798;51.938;4.348;2023-04-27T02:13:14;3.70;;;2.80;;
17361;SDS011;8798;51.938;4.348;2023-04-27T02:15:44;6.67;;;2.67;;
17361;SDS011;8798;51.938;4.348;2023-04-27T02:18:11;4.80;;;2.73;;
17361;SDS011;8798;51.938;4.348;2023-04-27T02:20:40;5.67;;;2.90;;
17361;SDS011;8798;51.938;4.348;2023-04-27T02:23:08;6.73;;;2.60;;
17361;SDS011;8798;51.938;4.348;2023-04-27T02:25:36;5.73;;;2.70;;
17361;SDS011;8798;51.938;4.348;2023-04-27T02:28:08;5.00;;;2.70;;
17361;SDS011;8798;51.938;4.348;2023-04-27T02:30:36;7.57;;;2.50;;
17361;SDS011;8798;51.938;4.348;2023-04-27T02:33:05;3.87;;;2.23;;
17361;SDS011;8798;51.938;4.348;2023-04-27T02:35:33;7.73;;;2.17;;
17361;SDS011;8798;51.938;4.348;2023-04-27T02:38:01;5.03;;;2.40;;
17361;SDS011;8798;51.938;4.348;2023-04-27T02:40:29;2.97;;;1.93;;
17361;SDS011;8798;51.938;4.348;2023-04-27T02:42:56;6.50;;;2.27;;
17361;SDS011;8798;51.938;4.348;2023-04-27T02:45:24;7.77;;;2.60;;
17361;SDS011;8798;51.938;4.348;2023-04-27T02:47:53;4.23;;;2.07;;
17361;SDS011;8798;51.938;4.348;2023-04-27T02:50:23;5.77;;;1.97;;
17361;SDS011;8798;51.938;4.348;2023-04-27T02:52:51;3.20;;;1.90;;
17361;SDS011;8798;51.938;4.348;2023-04-27T02:55:18;2.93;;;1.87;;
17361;SDS011;8798;51.938;4.348;2023-04-27T02:57:46;6.50;;;1.97;;
17361;SDS011;8798;51.938;4.348;2023-04-27T03:00:14;2.40;;;1.80;;
17361;SDS011;8798;51.938;4.348;2023-04-27T03:02:42;5.87;;;2.27;;
17361;SDS011;8798;51.938;4.348;2023-04-27T03:05:10;3.70;;;1.50;;
17361;SDS011;8798;51.938;4.348;2023-04-27T03:07:39;2.63;;;1.67;;
17361;SDS011;8798;51.938;4.348;2023-04-27T03:10:07;3.17;;;1.90;;
17361;SDS011;8798;51.938;4.348;2023-04-27T03:12:35;5.37;;;1.93;;
17361;SDS011;8798;51.938;4.348;2023-04-27T03:15:03;4.27;;;2.10;;
17361;SDS011;8798;51.938;4.348;2023-04-27T03:17:33;2.70;;;1.93;;
17361;SDS011;8798;51.938;4.348;2023-04-27T03:20:01;4.47;;;2.17;;
17361;SDS011;8798;51.938;4.348;2023-04-27T03:22:30;5.53;;;2.30;;
17361;SDS011;8798;51.938;4.348;2023-04-27T03:24:59;4.77;;;2.17;;
17361;SDS011;8798;51.938;4.348;2023-04-27T03:27:27;3.73;;;2.17;;
17361;SDS011;8798;51.938;4.348;2023-04-27T03:29:55;4.47;;;2.20;;
17361;SDS011;8798;51.938;4.348;2023-04-27T03:32:22;6.80;;;2.17;;
17361;SDS011;8798;51.938;4.348;2023-04-27T03:34:51;5.10;;;1.90;;
17361;SDS011;8798;51.938;4.348;2023-04-27T03:37:18;3.57;;;1.80;;
17361;SDS011;8798;51.938;4.348;2023-04-27T03:39:46;3.87;;;2.23;;
17361;SDS011;8798;51.938;4.348;2023-04-27T03:42:15;5.47;;;2.60;;
17361;SDS011;8798;51.938;4.348;2023-04-27T03:44:44;5.60;;;2.67;;
17361;SDS011;8798;51.938;4.348;2023-04-27T03:47:13;6.43;;;2.53;;
17361;SDS011;8798;51.938;4.348;2023-04-27T03:49:41;4.20;;;2.20;;
17361;SDS011;8798;51.938;4.348;2023-04-27T03:52:09;4.60;;;2.20;;
17361;SDS011;8798;51.938;4.348;2023-04-27T03:54:36;3.10;;;1.90;;
17361;SDS011;8798;51.938;4.348;2023-04-27T03:57:04;3.53;;;2.33;;
17361;SDS011;8798;51.938;4.348;2023-04-27T03:59:33;5.33;;;2.10;;
17361;SDS011;8798;51.938;4.348;2023-04-27T04:02:01;4.53;;;2.13;;
17361;SDS011;8798;51.938;4.348;2023-04-27T04:04:30;6.97;;;2.30;;
17361;SDS011;8798;51.938;4.348;2023-04-27T04:06:58;6.63;;;2.43;;
17361;SDS011;8798;51.938;4.348;2023-04-27T04:09:26;6.27;;;2.33;;
17361;SDS011;8798;51.938;4.348;2023-04-27T04:11:54;4.73;;;2.13;;
17361;SDS011;8798;51.938;4.348;2023-04-27T04:14:23;3.90;;;2.40;;
17361;SDS011;8798;51.938;4.348;2023-04-27T04:16:52;3.53;;;2.20;;
17361;SDS011;8798;51.938;4.348;2023-04-27T04:19:20;3.57;;;2.23;;
17361;SDS011;8798;51.938;4.348;2023-04-27T04:21:48;4.47;;;2.50;;
17361;SDS011;8798;51.938;4.348;2023-04-27T04:24:15;4.10;;;2.33;;
17361;SDS011;8798;51.938;4.348;2023-04-27T04:26:43;8.67;;;2.33;;
17361;SDS011;8798;51.938;4.348;2023-04-27T04:29:12;7.50;;;2.47;;
17361;SDS011;8798;51.938;4.348;2023-04-27T04:31:40;6.80;;;2.60;;
17361;SDS011;8798;51.938;4.348;2023-04-27T04:34:10;5.90;;;2.17;;
17361;SDS011;8798;51.938;4.348;2023-04-27T04:36:38;4.37;;;2.20;;
17361;SDS011;8798;51.938;4.348;2023-04-27T04:39:05;3.50;;;2.03;;
17361;SDS011;8798;51.938;4.348;2023-04-27T04:41:33;3.27;;;2.00;;
17361;SDS011;8798;51.938;4.348;2023-04-27T04:44:01;4.77;;;2.40;;
17361;SDS011;8798;51.938;4.348;2023-04-27T04:46:29;3.77;;;2.40;;
17361;SDS011;8798;51.938;4.348;2023-04-27T04:48:57;5.17;;;2.20;;
17361;SDS011;8798;51.938;4.348;2023-04-27T04:51:26;4.20;;;2.50;;
17361;SDS011;8798;51.938;4.348;2023-04-27T04:53:54;3.43;;;2.43;;
17361;SDS011;8798;51.938;4.348;2023-04-27T04:56:23;4.63;;;2.30;;
17361;SDS011;8798;51.938;4.348;2023-04-27T04:58:51;8.57;;;2.77;;
17361;SDS011;8798;51.938;4.348;2023-04-27T05:01:18;4.13;;;2.37;;
17361;SDS011;8798;51.938;4.348;2023-04-27T05:03:47;4.63;;;2.30;;
17361;SDS011;8798;51.938;4.348;2023-04-27T05:06:15;3.50;;;2.20;;
17361;SDS011;8798;51.938;4.348;2023-04-27T05:08:44;3.50;;;2.13;;
17361;SDS011;8798;51.938;4.348;2023-04-27T05:11:12;5.47;;;2.50;;
17361;SDS011;8798;51.938;4.348;2023-04-27T05:13:39;6.23;;;2.63;;
17361;SDS011;8798;51.938;4.348;2023-04-27T05:16:08;6.10;;;2.57;;
17361;SDS011;8798;51.938;4.348;2023-04-27T05:18:36;6.20;;;2.57;;
17361;SDS011;8798;51.938;4.348;2023-04-27T05:21:03;5.33;;;2.33;;
17361;SDS011;8798;51.938;4.348;2023-04-27T05:23:31;7.27;;;2.17;;
17361;SDS011;8798;51.938;4.348;2023-04-27T05:26:00;7.30;;;2.53;;
17361;SDS011;8798;51.938;4.348;2023-04-27T05:28:28;4.67;;;2.43;;
17361;SDS011;8798;51.938;4.348;2023-04-27T05:30:56;4.53;;;2.63;;
17361;SDS011;8798;51.938;4.348;2023-04-27T05:33:24;7.30;;;2.57;;
17361;SDS011;8798;51.938;4.348;2023-04-27T05:35:52;4.70;;;2.70;;
17361;SDS011;8798;51.938;4.348;2023-04-27T05:38:19;4.90;;;2.73;;
17361;SDS011;8798;51.938;4.348;2023-04-27T05:40:52;7.13;;;3.30;;
17361;SDS011;8798;51.938;4.348;2023-04-27T05:43:22;6.07;;;2.40;;
17361;SDS011;8798;51.938;4.348;2023-04-27T05:45:53;6.13;;;2.90;;
17361;SDS011;8798;51.938;4.348;2023-04-27T05:48:21;4.37;;;2.40;;
17361;SDS011;8798;51.938;4.348;2023-04-27T05:50:49;4.17;;;2.93;;
17361;SDS011;8798;51.938;4.348;2023-04-27T05:53:24;7.00;;;2.90;;
17361;SDS011;8798;51.938;4.348;2023-04-27T05:55:52;7.13;;;3.23;;
17361;SDS011;8798;51.938;4.348;2023-04-27T05:58:21;6.63;;;2.43;;
17361;SDS011;8798;51.938;4.348;2023-04-27T06:00:49;4.47;;;2.63;;
17361;SDS011;8798;51.938;4.348;2023-04-27T06:03:17;4.30;;;2.80;;
17361;SDS011;8798;51.938;4.348;2023-04-27T06:05:45;6.27;;;2.30;;
17361;SDS011;8798;51.938;4.348;2023-04-27T06:08:13;10.37;;;2.63;;
17361;SDS011;8798;51.938;4.348;2023-04-27T06:10:41;4.93;;;3.00;;
17361;SDS011;8798;51.938;4.348;2023-04-27T06:13:09;5.63;;;2.73;;
17361;SDS011;8798;51.938;4.348;2023-04-27T06:15:38;6.10;;;2.73;;
17361;SDS011;8798;51.938;4.348;2023-04-27T06:18:06;5.13;;;2.30;;
17361;SDS011;8798;51.938;4.348;2023-04-27T06:20:34;9.50;;;2.27;;
17361;SDS011;8798;51.938;4.348;2023-04-27T06:23:02;4.03;;;2.57;;
17361;SDS011;8798;51.938;4.348;2023-04-27T06:25:30;3.57;;;2.20;;
17361;SDS011;8798;51.938;4.348;2023-04-27T06:27:58;4.83;;;2.30;;
17361;SDS011;8798;51.938;4.348;2023-04-27T06:30:25;8.60;;;2.80;;
17361;SDS011;8798;51.938;4.348;2023-04-27T06:32:55;5.17;;;2.43;;
17361;SDS011;8798;51.938;4.348;2023-04-27T06:35:22;4.77;;;2.43;;
17361;SDS011;8798;51.938;4.348;2023-04-27T06:37:50;6.50;;;2.40;;
17361;SDS011;8798;51.938;4.348;2023-04-27T06:40:18;6.23;;;2.60;;
17361;SDS011;8798;51.938;4.348;2023-04-27T06:42:49;3.20;;;1.93;;
17361;SDS011;8798;51.938;4.348;2023-04-27T06:45:17;4.93;;;2.70;;
17361;SDS011;8798;51.938;4.348;2023-04-27T06:47:44;3.43;;;2.30;;
17361;SDS011;8798;51.938;4.348;2023-04-27T06:50:14;6.30;;;2.30;;
17361;SDS011;8798;51.938;4.348;2023-04-27T06:52:42;4.60;;;2.13;;
17361;SDS011;8798;51.938;4.348;2023-04-27T06:55:10;5.43;;;2.13;;
17361;SDS011;8798;51.938;4.348;2023-04-27T06:57:38;6.27;;;2.30;;
17361;SDS011;8798;51.938;4.348;2023-04-27T07:00:06;4.70;;;2.10;;
17361;SDS011;8798;51.938;4.348;2023-04-27T07:02:35;3.73;;;2.30;;
17361;SDS011;8798;51.938;4.348;2023-04-27T07:05:04;7.73;;;2.07;;
17361;SDS011;8798;51.938;4.348;2023-04-27T07:07:33;4.67;;;1.90;;
17361;SDS011;8798;51.938;4.348;2023-04-27T07:10:01;3.57;;;2.20;;
17361;SDS011;8798;51.938;4.348;2023-04-27T07:12:29;6.30;;;2.30;;
17361;SDS011;8798;51.938;4.348;2023-04-27T07:14:57;3.43;;;1.83;;
17361;SDS011;8798;51.938;4.348;2023-04-27T07:17:25;5.83;;;2.20;;
17361;SDS011;8798;51.938;4.348;2023-04-27T07:19:52;4.77;;;2.47;;
17361;SDS011;8798;51.938;4.348;2023-04-27T07:22:20;3.03;;;2.07;;
17361;SDS011;8798;51.938;4.348;2023-04-27T07:24:49;7.50;;;2.20;;
17361;SDS011;8798;51.938;4.348;2023-04-27T07:27:17;5.10;;;2.40;;
17361;SDS011;8798;51.938;4.348;2023-04-27T07:29:45;4.43;;;2.43;;
17361;SDS011;8798;51.938;4.348;2023-04-27T07:32:13;5.67;;;2.00;;
17361;SDS011;8798;51.938;4.348;2023-04-27T07:34:41;5.67;;;2.03;;
17361;SDS011;8798;51.938;4.348;2023-04-27T07:37:19;3.63;;;1.70;;
17361;SDS011;8798;51.938;4.348;2023-04-27T07:39:47;5.00;;;2.20;;
17361;SDS011;8798;51.938;4.348;2023-04-27T07:42:17;2.73;;;2.00;;
17361;SDS011;8798;51.938;4.348;2023-04-27T07:44:44;6.60;;;1.90;;
17361;SDS011;8798;51.938;4.348;2023-04-27T07:47:12;3.40;;;1.80;;
17361;SDS011;8798;51.938;4.348;2023-04-27T07:49:40;6.17;;;2.00;;
17361;SDS011;8798;51.938;4.348;2023-04-27T07:52:11;6.80;;;2.50;;
17361;SDS011;8798;51.938;4.348;2023-04-27T07:54:39;6.57;;;1.83;;
17361;SDS011;8798;51.938;4.348;2023-04-27T07:57:07;3.00;;;1.93;;
17361;SDS011;8798;51.938;4.348;2023-04-27T07:59:38;4.80;;;1.90;;
17361;SDS011;8798;51.938;4.348;2023-04-27T08:02:06;4.27;;;2.00;;
17361;SDS011;8798;51.938;4.348;2023-04-27T08:04:45;4.37;;;1.73;;
17361;SDS011;8798;51.938;4.348;2023-04-27T08:07:13;2.73;;;1.70;;
17361;SDS011;8798;51.938;4.348;2023-04-27T08:09:43;4.47;;;1.90;;
17361;SDS011;8798;51.938;4.348;2023-04-27T08:12:10;4.87;;;2.30;;
17361;SDS011;8798;51.938;4.348;2023-04-27T08:14:40;3.87;;;1.70;;
17361;SDS011;8798;51.938;4.348;2023-04-27T08:17:07;4.60;;;1.80;;
17361;SDS011;8798;51.938;4.348;2023-04-27T08:19:36;3.97;;;1.93;;
17361;SDS011;8798;51.938;4.348;2023-04-27T08:22:04;2.97;;;1.53;;
17361;SDS011;8798;51.938;4.348;2023-04-27T08:24:32;5.60;;;1.80;;
17361;SDS011;8798;51.938;4.348;2023-04-27T08:27:00;2.90;;;1.80;;
17361;SDS011;8798;51.938;4.348;2023-04-27T08:29:28;3.67;;;2.03;;
17361;SDS011;8798;51.938;4.348;2023-04-27T08:31:59;4.23;;;1.90;;
17361;SDS011;8798;51.938;4.348;2023-04-27T08:34:28;3.80;;;1.80;;
17361;SDS011;8798;51.938;4.348;2023-04-27T08:36:55;3.50;;;1.50;;
17361;SDS011;8798;51.938;4.348;2023-04-27T08:39:23;3.00;;;1.63;;
17361;SDS011;8798;51.938;4.348;2023-04-27T08:41:51;3.13;;;1.40;;
17361;SDS011;8798;51.938;4.348;2023-04-27T08:44:19;6.10;;;1.80;;
17361;SDS011;8798;51.938;4.348;2023-04-27T08:46:47;2.77;;;2.00;;
17361;SDS011;8798;51.938;4.348;2023-04-27T08:49:17;2.50;;;1.80;;
17361;SDS011;8798;51.938;4.348;2023-04-27T08:51:46;4.00;;;1.60;;
17361;SDS011;8798;51.938;4.348;2023-04-27T08:54:14;3.60;;;1.70;;
17361;SDS011;8798;51.938;4.348;2023-04-27T08:56:41;2.53;;;1.33;;
17361;SDS011;8798;51.938;4.348;2023-04-27T08:59:12;3.23;;;1.80;;
17361;SDS011;8798;51.938;4.348;2023-04-27T09:01:42;3.37;;;1.83;;
17361;SDS011;8798;51.938;4.348;2023-04-27T09:04:10;5.97;;;1.93;;
17361;SDS011;8798;51.938;4.348;2023-04-27T09:06:40;6.93;;;2.10;;
17361;SDS011;8798;51.938;4.348;2023-04-27T09:09:08;5.53;;;2.10;;
17361;SDS011;8798;51.938;4.348;2023-04-27T09:11:37;5.37;;;2.03;;
17361;SDS011;8798;51.938;4.348;2023-04-27T09:14:14;7.63;;;2.07;;
17361;SDS011;8798;51.938;4.348;2023-04-27T09:16:43;3.37;;;2.17;;
17361;SDS011;8798;51.938;4.348;2023-04-27T09:19:11;4.13;;;1.93;;
17361;SDS011;8798;51.938;4.348;2023-04-27T09:22:01;4.90;;;2.00;;
17361;SDS011;8798;51.938;4.348;2023-04-27T09:24:29;6.17;;;2.40;;
17361;SDS011;8798;51.938;4.348;2023-04-27T09:26:57;5.57;;;2.17;;
17361;SDS011;8798;51.938;4.348;2023-04-27T09:29:32;4.10;;;1.93;;
17361;SDS011;8798;51.938;4.348;2023-04-27T09:32:01;4.60;;;2.10;;
17361;SDS011;8798;51.938;4.348;2023-04-27T09:34:42;4.57;;;2.30;;
17361;SDS011;8798;51.938;4.348;2023-04-27T09:37:11;2.67;;;1.90;;
17361;SDS011;8798;51.938;4.348;2023-04-27T09:39:40;3.53;;;1.83;;
17361;SDS011;8798;51.938;4.348;2023-04-27T09:42:08;4.93;;;1.50;;
17361;SDS011;8798;51.938;4.348;2023-04-27T09:44:38;3.47;;;2.03;;
17361;SDS011;8798;51.938;4.348;2023-04-27T09:47:06;3.30;;;1.90;;
17361;SDS011;8798;51.938;4.348;2023-04-27T09:49:34;5.43;;;2.10;;
17361;SDS011;8798;51.938;4.348;2023-04-27T09:52:02;19.07;;;2.83;;
17361;SDS011;8798;51.938;4.348;2023-04-27T09:54:32;4.23;;;2.17;;
17361;SDS011;8798;51.938;4.348;2023-04-27T09:57:04;4.63;;;2.23;;
17361;SDS011;8798;51.938;4.348;2023-04-27T09:59:46;4.93;;;2.20;;
17361;SDS011;8798;51.938;4.348;2023-04-27T10:02:23;4.30;;;2.90;;
17361;SDS011;8798;51.938;4.348;2023-04-27T10:07:55;3.50;;;2.30;;
17361;SDS011;8798;51.938;4.348;2023-04-27T10:10:25;6.30;;;2.40;;
17361;SDS011;8798;51.938;4.348;2023-04-27T10:12:56;3.70;;;2.13;;
17361;SDS011;8798;51.938;4.348;2023-04-27T10:15:25;5.20;;;2.33;;
17361;SDS011;8798;51.938;4.348;2023-04-27T10:17:54;5.57;;;2.60;;
17361;SDS011;8798;51.938;4.348;2023-04-27T10:20:27;5.03;;;2.47;;
17361;SDS011;8798;51.938;4.348;2023-04-27T10:22:57;5.90;;;2.17;;
17361;SDS011;8798;51.938;4.348;2023-04-27T10:25:27;3.70;;;2.13;;
17361;SDS011;8798;51.938;4.348;2023-04-27T10:27:58;3.43;;;2.27;;
17361;SDS011;8798;51.938;4.348;2023-04-27T10:30:30;4.33;;;2.70;;
17361;SDS011;8798;51.938;4.348;2023-04-27T10:33:02;6.57;;;2.90;;
17361;SDS011;8798;51.938;4.348;2023-04-27T10:35:32;6.37;;;2.80;;
17361;SDS011;8798;51.938;4.348;2023-04-27T10:38:05;4.00;;;2.30;;
17361;SDS011;8798;51.938;4.348;2023-04-27T10:40:35;3.47;;;2.53;;
17361;SDS011;8798;51.938;4.348;2023-04-27T10:43:07;4.30;;;2.60;;
17361;SDS011;8798;51.938;4.348;2023-04-27T10:45:36;3.73;;;2.50;;
17361;SDS011;8798;51.938;4.348;2023-04-27T10:48:04;3.27;;;2.30;;
17361;SDS011;8798;51.938;4.348;2023-04-27T10:50:32;4.10;;;2.40;;
17361;SDS011;8798;51.938;4.348;2023-04-27T10:53:01;4.80;;;2.77;;
17361;SDS011;8798;51.938;4.348;2023-04-27T10:55:30;5.23;;;2.47;;
17361;SDS011;8798;51.938;4.348;2023-04-27T10:58:00;4.80;;;2.40;;
17361;SDS011;8798;51.938;4.348;2023-04-27T11:00:29;4.73;;;2.53;;
17361;SDS011;8798;51.938;4.348;2023-04-27T11:03:08;5.20;;;2.70;;
17361;SDS011;8798;51.938;4.348;2023-04-27T11:05:38;5.57;;;2.37;;
17361;SDS011;8798;51.938;4.348;2023-04-27T11:08:06;3.53;;;2.17;;
17361;SDS011;8798;51.938;4.348;2023-04-27T11:10:37;4.80;;;2.73;;
17361;SDS011;8798;51.938;4.348;2023-04-27T11:13:08;7.13;;;2.83;;
17361;SDS011;8798;51.938;4.348;2023-04-27T11:15:41;3.43;;;2.47;;
17361;SDS011;8798;51.938;4.348;2023-04-27T11:18:13;6.73;;;2.60;;
17361;SDS011;8798;51.938;4.348;2023-04-27T11:20:42;7.83;;;3.03;;
17361;SDS011;8798;51.938;4.348;2023-04-27T11:23:10;6.10;;;2.37;;
17361;SDS011;8798;51.938;4.348;2023-04-27T11:25:38;4.90;;;2.30;;
17361;SDS011;8798;51.938;4.348;2023-04-27T11:28:16;4.43;;;2.30;;
17361;SDS011;8798;51.938;4.348;2023-04-27T11:30:44;3.80;;;2.37;;
17361;SDS011;8798;51.938;4.348;2023-04-27T11:33:13;7.80;;;2.80;;
17361;SDS011;8798;51.938;4.348;2023-04-27T11:35:40;7.00;;;2.73;;
17361;SDS011;8798;51.938;4.348;2023-04-27T11:38:14;6.30;;;2.57;;
17361;SDS011;8798;51.938;4.348;2023-04-27T11:40:43;4.23;;;2.60;;
17361;SDS011;8798;51.938;4.348;2023-04-27T11:43:12;6.00;;;2.73;;
17361;SDS011;8798;51.938;4.348;2023-04-27T11:45:42;5.13;;;2.27;;
17361;SDS011;8798;51.938;4.348;2023-04-27T11:48:13;6.30;;;2.30;;
17361;SDS011;8798;51.938;4.348;2023-04-27T11:50:45;4.97;;;2.83;;
17361;SDS011;8798;51.938;4.348;2023-04-27T11:53:13;6.67;;;2.60;;
17361;SDS011;8798;51.938;4.348;2023-04-27T11:55:44;6.47;;;2.90;;
17361;SDS011;8798;51.938;4.348;2023-04-27T11:58:18;6.23;;;2.90;;
17361;SDS011;8798;51.938;4.348;2023-04-27T12:00:48;4.87;;;2.87;;
17361;SDS011;8798;51.938;4.348;2023-04-27T12:03:16;4.43;;;2.60;;
17361;SDS011;8798;51.938;4.348;2023-04-27T12:05:48;5.03;;;2.93;;
17361;SDS011;8798;51.938;4.348;2023-04-27T12:08:16;8.20;;;2.70;;
17361;SDS011;8798;51.938;4.348;2023-04-27T12:10:44;4.70;;;3.00;;
17361;SDS011;8798;51.938;4.348;2023-04-27T12:13:13;4.50;;;2.30;;
17361;SDS011;8798;51.938;4.348;2023-04-27T12:15:41;4.47;;;2.73;;
17361;SDS011;8798;51.938;4.348;2023-04-27T12:18:10;5.20;;;2.63;;
17361;SDS011;8798;51.938;4.348;2023-04-27T12:20:38;6.07;;;3.57;;
17361;SDS011;8798;51.938;4.348;2023-04-27T12:23:06;5.87;;;3.13;;
17361;SDS011;8798;51.938;4.348;2023-04-27T12:25:34;5.97;;;2.87;;
17361;SDS011;8798;51.938;4.348;2023-04-27T12:28:02;8.80;;;2.93;;
17361;SDS011;8798;51.938;4.348;2023-04-27T12:30:31;4.37;;;2.93;;
17361;SDS011;8798;51.938;4.348;2023-04-27T12:32:59;7.00;;;3.30;;
17361;SDS011;8798;51.938;4.348;2023-04-27T12:35:29;4.70;;;2.90;;
17361;SDS011;8798;51.938;4.348;2023-04-27T12:37:57;4.37;;;2.73;;
17361;SDS011;8798;51.938;4.348;2023-04-27T12:40:25;4.63;;;3.10;;
17361;SDS011;8798;51.938;4.348;2023-04-27T12:42:52;8.40;;;3.53;;
17361;SDS011;8798;51.938;4.348;2023-04-27T12:45:21;4.37;;;2.90;;
17361;SDS011;8798;51.938;4.348;2023-04-27T12:47:48;6.20;;;3.70;;
17361;SDS011;8798;51.938;4.348;2023-04-27T12:50:30;5.30;;;3.13;;
17361;SDS011;8798;51.938;4.348;2023-04-27T12:52:58;5.40;;;3.23;;
17361;SDS011;8798;51.938;4.348;2023-04-27T12:55:26;6.27;;;3.10;;
17361;SDS011;8798;51.938;4.348;2023-04-27T12:57:59;4.80;;;2.80;;
17361;SDS011;8798;51.938;4.348;2023-04-27T13:00:27;4.40;;;3.00;;
17361;SDS011;8798;51.938;4.348;2023-04-27T13:02:55;4.23;;;2.80;;
17361;SDS011;8798;51.938;4.348;2023-04-27T13:05:23;5.57;;;2.80;;
17361;SDS011;8798;51.938;4.348;2023-04-27T13:07:53;5.77;;;3.17;;
17361;SDS011;8798;51.938;4.348;2023-04-27T13:10:20;5.43;;;3.00;;
17361;SDS011;8798;51.938;4.348;2023-04-27T13:12:48;6.40;;;3.30;;
17361;SDS011;8798;51.938;4.348;2023-04-27T13:15:16;4.43;;;2.80;;
17361;SDS011;8798;51.938;4.348;2023-04-27T13:17:44;4.83;;;3.23;;
17361;SDS011;8798;51.938;4.348;2023-04-27T13:20:12;6.23;;;3.17;;
17361;SDS011;8798;51.938;4.348;2023-04-27T13:22:40;9.57;;;3.63;;
17361;SDS011;8798;51.938;4.348;2023-04-27T13:25:10;5.73;;;3.63;;
17361;SDS011;8798;51.938;4.348;2023-04-27T13:27:38;7.17;;;3.50;;
17361;SDS011;8798;51.938;4.348;2023-04-27T13:30:06;6.70;;;3.53;;
17361;SDS011;8798;51.938;4.348;2023-04-27T13:32:35;6.50;;;3.93;;
17361;SDS011;8798;51.938;4.348;2023-04-27T13:35:03;6.07;;;3.63;;
17361;SDS011;8798;51.938;4.348;2023-04-27T13:37:33;6.30;;;3.73;;
17361;SDS011;8798;51.938;4.348;2023-04-27T13:40:00;5.83;;;3.37;;
17361;SDS011;8798;51.938;4.348;2023-04-27T13:42:31;8.27;;;4.13;;
17361;SDS011;8798;51.938;4.348;2023-04-27T13:45:00;6.03;;;4.00;;
17361;SDS011;8798;51.938;4.348;2023-04-27T13:47:29;7.13;;;3.90;;
17361;SDS011;8798;51.938;4.348;2023-04-27T13:50:02;6.93;;;3.97;;
17361;SDS011;8798;51.938;4.348;2023-04-27T13:52:31;9.30;;;3.43;;
17361;SDS011;8798;51.938;4.348;2023-04-27T13:54:59;7.40;;;4.07;;
17361;SDS011;8798;51.938;4.348;2023-04-27T13:57:27;6.50;;;4.00;;
17361;SDS011;8798;51.938;4.348;2023-04-27T13:59:56;5.37;;;3.50;;
17361;SDS011;8798;51.938;4.348;2023-04-27T14:02:25;8.67;;;3.60;;
17361;SDS011;8798;51.938;4.348;2023-04-27T14:04:55;6.50;;;3.83;;
17361;SDS011;8798;51.938;4.348;2023-04-27T14:07:23;6.30;;;3.73;;
17361;SDS011;8798;51.938;4.348;2023-04-27T14:09:50;8.60;;;3.77;;
17361;SDS011;8798;51.938;4.348;2023-04-27T14:12:18;6.07;;;3.37;;
17361;SDS011;8798;51.938;4.348;2023-04-27T14:14:46;5.13;;;3.23;;
17361;SDS011;8798;51.938;4.348;2023-04-27T14:17:15;4.67;;;3.07;;
17361;SDS011;8798;51.938;4.348;2023-04-27T14:19:43;6.17;;;3.37;;
17361;SDS011;8798;51.938;4.348;2023-04-27T14:22:11;8.13;;;3.57;;
17361;SDS011;8798;51.938;4.348;2023-04-27T14:24:39;5.03;;;3.40;;
17361;SDS011;8798;51.938;4.348;2023-04-27T14:27:07;5.30;;;3.27;;
17361;SDS011;8798;51.938;4.348;2023-04-27T14:29:34;5.63;;;3.33;;
17361;SDS011;8798;51.938;4.348;2023-04-27T14:32:02;7.40;;;3.60;;
17361;SDS011;8798;51.938;4.348;2023-04-27T14:34:39;5.47;;;3.20;;
17361;SDS011;8798;51.938;4.348;2023-04-27T14:37:07;5.93;;;3.30;;
17361;SDS011;8798;51.938;4.348;2023-04-27T14:39:36;5.80;;;3.37;;
17361;SDS011;8798;51.938;4.348;2023-04-27T14:42:06;6.43;;;3.20;;
17361;SDS011;8798;51.938;4.348;2023-04-27T14:44:34;7.83;;;3.47;;
17361;SDS011;8798;51.938;4.348;2023-04-27T14:47:02;4.97;;;2.90;;
17361;SDS011;8798;51.938;4.348;2023-04-27T14:49:30;4.60;;;3.17;;
17361;SDS011;8798;51.938;4.348;2023-04-27T14:51:59;6.87;;;3.47;;
17361;SDS011;8798;51.938;4.348;2023-04-27T14:54:29;4.50;;;3.30;;
17361;SDS011;8798;51.938;4.348;2023-04-27T14:56:57;6.37;;;3.30;;
17361;SDS011;8798;51.938;4.348;2023-04-27T14:59:26;5.73;;;3.07;;
17361;SDS011;8798;51.938;4.348;2023-04-27T15:01:54;5.93;;;3.90;;
17361;SDS011;8798;51.938;4.348;2023-04-27T15:04:22;7.07;;;3.93;;
17361;SDS011;8798;51.938;4.348;2023-04-27T15:06:50;6.73;;;3.43;;
17361;SDS011;8798;51.938;4.348;2023-04-27T15:09:19;6.93;;;3.33;;
17361;SDS011;8798;51.938;4.348;2023-04-27T15:11:47;4.87;;;3.30;;
17361;SDS011;8798;51.938;4.348;2023-04-27T15:14:15;5.00;;;3.00;;